Forside
METAR-TAF:

METAR-TAF

Lufthavne :

Valley, Wales

Breddekreds: 53-15N, længdekreds: 004-32W, højde: 1 m

Aktuelle vejr

Denne rapport blev lavet for 24 minutter siden, kl. 17:20 UTC
Vind 21 kt fra vest
Temperatur 7°C
Fugtighed 61%
Tryk 1008 hPa
Sigt 10 km eller mere
Nogle få skyer i en højde af 2000 ft, Cumulonimbus.

METAR: EGOV 171720Z 26021KT 9999 FEW020CB 07/M00 Q1008 NOSIG RMK BLU BLU

Tid: 17:44 (17:44 UTC)

Vejrudsigter

Denne rapport blev lavet for 4 timer og 4 minutter siden, kl. 13:40 UTC
Foreløbig gælder fra 17 på 15 UTC til 17 på 20 UTC
Vind 21 kt fra vestsydvest med vindstød på up til 31 kt
Sigt 10 km eller mere
Nogle få skyer i en højde af 2200 ft
Spredte skyer i en højde af 4000 ft
Sandsynlighed 30% :
Midlertidig
fra 17 på 15 UTC til 17 på 19 UTC
Sigt: 7000 m
Spredte skyer i en højde af 2000 ft, Cumulonimbus.
regnbyger

TAF: EGOV 171340Z 1715/1720 24021G31KT 9999 FEW022 SCT040 PROB30 TEMPO 1715/1719 7000 SHRA SCT020CB

Vejrobservationer og prognoser fra mere end 4000 lufthavne (METAR og TAF).

De gule og røde prikker repræsenterer de meteorologiske stationer.

Flyt musen over at se navnet på stationen.

Så klik over at se vejr observationer og prognoser.

At skifte det kort: Klik på de grønne knapper med et sort kors for at zoome ind; på den grønne knap med en bindestreg for at zoome ud; eller på de grønne pile for tilstødende kort.


METAR-TAF: